createdAt,value
2023-02-28T00:02:31.231Z,10.35
2023-02-28T00:05:39.823Z,10.88
2023-02-28T00:08:46.612Z,12.26
2023-02-28T00:11:53.027Z,12.22
2023-02-28T00:14:59.839Z,12.13
2023-02-28T00:18:06.465Z,13.30
2023-02-28T00:21:15.883Z,14.07
2023-02-28T00:24:21.749Z,13.72
2023-02-28T00:27:28.528Z,14.62
2023-02-28T00:30:34.491Z,14.57
2023-02-28T00:33:45.047Z,14.77
2023-02-28T00:36:53.543Z,15.29
2023-02-28T00:40:00.416Z,17.55
2023-02-28T00:43:06.802Z,20.09
2023-02-28T00:46:13.757Z,21.41
2023-02-28T00:49:19.656Z,20.90
2023-02-28T00:52:29.115Z,24.29
2023-02-28T00:55:34.978Z,23.30
2023-02-28T00:58:41.777Z,21.51
2023-02-28T01:01:49.991Z,21.90
2023-02-28T01:04:58.024Z,23.81
2023-02-28T01:08:06.643Z,22.37
2023-02-28T01:11:16.018Z,23.42
2023-02-28T01:14:23.182Z,22.50
2023-02-28T01:17:30.086Z,22.23
2023-02-28T01:20:36.930Z,23.12
2023-02-28T01:23:47.058Z,22.38
2023-02-28T01:26:52.940Z,20.97
2023-02-28T01:30:01.786Z,23.22
2023-02-28T01:33:07.614Z,27.33
2023-02-28T01:36:19.208Z,23.24
2023-02-28T01:39:27.772Z,22.45
2023-02-28T01:42:34.515Z,21.83
2023-02-28T01:45:41.152Z,21.94
2023-02-28T01:48:55.344Z,21.13
2023-02-28T01:52:01.670Z,20.83
2023-02-28T01:55:16.113Z,21.86
2023-02-28T01:58:22.856Z,21.53
2023-02-28T02:01:34.753Z,20.74
2023-02-28T02:04:51.241Z,22.41
2023-02-28T02:08:06.261Z,21.52
2023-02-28T02:11:25.772Z,21.61
2023-02-28T02:14:55.269Z,23.75
2023-02-28T02:18:13.106Z,22.46
2023-02-28T02:22:00.093Z,21.42
2023-02-28T02:25:36.402Z,22.51
2023-02-28T02:29:33.254Z,21.75
2023-02-28T02:33:21.895Z,21.50
2023-02-28T02:36:39.596Z,22.80
2023-02-28T02:40:08.641Z,23.81
2023-02-28T02:43:28.588Z,23.62
2023-02-28T02:46:43.667Z,23.65
2023-02-28T02:49:59.729Z,23.34
2023-02-28T02:53:13.110Z,24.22
2023-02-28T02:56:30.190Z,24.74
2023-02-28T02:59:42.071Z,23.28
2023-02-28T03:02:53.436Z,23.24
2023-02-28T03:06:04.996Z,23.59
2023-02-28T03:09:21.171Z,22.98
2023-02-28T03:12:43.921Z,21.60
2023-02-28T03:16:17.055Z,20.80
2023-02-28T03:20:01.640Z,21.06
2023-02-28T03:23:23.491Z,20.08
2023-02-28T03:26:33.787Z,20.11
2023-02-28T03:29:50.334Z,20.23
2023-02-28T03:33:07.825Z,21.13
2023-02-28T03:36:24.027Z,22.76
2023-02-28T03:39:43.559Z,22.73
2023-02-28T03:43:04.923Z,22.59
2023-02-28T03:46:22.328Z,22.64
2023-02-28T03:49:39.357Z,22.55
2023-02-28T03:52:54.450Z,22.41
2023-02-28T03:56:12.773Z,23.02
2023-02-28T03:59:37.211Z,24.43
2023-02-28T04:02:44.275Z,26.48
2023-02-28T04:05:57.287Z,27.36
2023-02-28T04:09:04.933Z,28.08
2023-02-28T04:12:12.109Z,30.40
2023-02-28T04:15:24.001Z,30.46
2023-02-28T04:18:30.010Z,30.08
2023-02-28T04:21:40.197Z,30.58
2023-02-28T04:24:48.042Z,30.97
2023-02-28T04:27:58.698Z,30.51
2023-02-28T04:31:14.426Z,30.20
2023-02-28T04:34:22.413Z,29.64
2023-02-28T04:37:30.493Z,29.63
2023-02-28T04:40:37.156Z,29.92
2023-02-28T04:43:43.117Z,29.01
2023-02-28T04:46:53.460Z,29.74
2023-02-28T04:49:59.462Z,29.41
2023-02-28T04:53:06.113Z,31.80
2023-02-28T04:56:16.184Z,35.75
2023-02-28T04:59:22.886Z,34.36
2023-02-28T05:02:31.455Z,34.49
2023-02-28T05:05:38.241Z,32.87
2023-02-28T05:08:44.922Z,32.56
2023-02-28T05:11:51.550Z,32.96
2023-02-28T05:14:57.479Z,34.28
2023-02-28T05:18:12.404Z,35.99
2023-02-28T05:21:35.285Z,37.11
2023-02-28T05:24:43.491Z,38.36
2023-02-28T05:27:55.248Z,37.67
2023-02-28T05:31:08.718Z,36.10
2023-02-28T05:34:18.996Z,34.52
2023-02-28T05:37:25.705Z,32.89
2023-02-28T05:40:31.665Z,32.66
2023-02-28T05:43:38.985Z,32.75
2023-02-28T05:46:44.854Z,33.97
2023-02-28T05:49:54.687Z,35.95
2023-02-28T05:53:00.626Z,36.84
2023-02-28T05:56:09.257Z,37.79
2023-02-28T05:59:15.484Z,38.17
2023-02-28T06:02:22.624Z,37.62
2023-02-28T06:05:31.859Z,40.41
2023-02-28T06:08:38.546Z,39.22
2023-02-28T06:11:44.608Z,39.14
2023-02-28T06:14:51.304Z,39.60
2023-02-28T06:17:57.617Z,42.82
2023-02-28T06:21:07.354Z,46.08
2023-02-28T06:24:13.543Z,46.68
2023-02-28T06:27:20.698Z,45.42
2023-02-28T06:30:29.375Z,44.39
2023-02-28T06:33:36.101Z,42.47
2023-02-28T06:36:46.277Z,41.79
2023-02-28T06:39:57.041Z,40.83
2023-02-28T06:43:15.672Z,41.35
2023-02-28T06:46:28.392Z,41.16
2023-02-28T06:49:35.017Z,41.74
2023-02-28T06:52:44.476Z,42.30
2023-02-28T06:55:55.055Z,41.61
2023-02-28T06:59:11.357Z,39.86
2023-02-28T07:02:17.171Z,39.64
2023-02-28T07:05:24.014Z,38.40
2023-02-28T07:08:32.920Z,40.84
2023-02-28T07:11:39.678Z,38.92
2023-02-28T07:14:45.683Z,34.75
2023-02-28T07:17:52.414Z,35.06
2023-02-28T07:20:58.381Z,35.22
2023-02-28T07:24:08.543Z,35.22
2023-02-28T07:27:26.839Z,34.04
2023-02-28T07:30:33.565Z,40.41
2023-02-28T07:33:41.847Z,43.14
2023-02-28T07:36:48.582Z,50.06
2023-02-28T07:39:58.424Z,47.29
2023-02-28T07:43:07.922Z,46.56
2023-02-28T07:46:17.833Z,40.78
2023-02-28T07:49:25.202Z,34.24
2023-02-28T07:52:31.195Z,36.29
2023-02-28T07:55:40.503Z,33.32
2023-02-28T07:58:46.364Z,33.31
2023-02-28T08:01:53.493Z,32.14
2023-02-28T08:04:59.569Z,33.50
2023-02-28T08:08:09.458Z,31.74
2023-02-28T08:11:18.905Z,30.75
2023-02-28T08:14:26.960Z,29.79
2023-02-28T08:17:35.333Z,33.83
2023-02-28T08:20:42.893Z,28.49
2023-02-28T08:23:50.797Z,29.44
2023-02-28T08:27:00.593Z,26.82
2023-02-28T08:30:09.324Z,26.34
2023-02-28T08:33:17.126Z,24.00
2023-02-28T08:36:23.972Z,22.82
2023-02-28T08:39:30.778Z,23.37
2023-02-28T08:42:40.073Z,22.66
2023-02-28T08:45:46.991Z,20.43
2023-02-28T08:49:00.474Z,20.37
2023-02-28T08:52:14.724Z,20.18
2023-02-28T08:55:20.757Z,23.19
2023-02-28T08:58:30.683Z,23.84
2023-02-28T09:01:37.845Z,21.85
2023-02-28T09:04:46.576Z,22.88
2023-02-28T09:07:53.812Z,19.61
2023-02-28T09:11:07.714Z,18.63
2023-02-28T09:14:18.650Z,19.53
2023-02-28T09:17:25.608Z,17.26
2023-02-28T09:20:36.467Z,19.09
2023-02-28T09:23:43.443Z,19.40
2023-02-28T09:26:56.801Z,20.31
2023-02-28T09:30:16.482Z,19.20
2023-02-28T09:33:24.787Z,18.98
2023-02-28T09:36:44.791Z,20.01
2023-02-28T09:39:51.371Z,19.36
2023-02-28T09:43:03.711Z,20.96
2023-02-28T09:46:35.684Z,19.66
2023-02-28T09:49:50.217Z,20.04
2023-02-28T09:52:59.742Z,20.34
2023-02-28T09:56:13.272Z,20.05
2023-02-28T09:59:38.165Z,18.12
2023-02-28T10:03:24.858Z,18.74
2023-02-28T10:06:39.383Z,21.91
2023-02-28T10:09:46.479Z,21.87
2023-02-28T10:13:00.006Z,18.87
2023-02-28T10:16:15.425Z,19.57
2023-02-28T10:19:34.732Z,20.36
2023-02-28T10:22:57.266Z,19.63
2023-02-28T10:26:17.207Z,18.28
2023-02-28T10:29:23.988Z,17.56
2023-02-28T10:32:35.563Z,18.68
2023-02-28T10:35:44.920Z,17.28
2023-02-28T10:38:52.871Z,17.41
2023-02-28T10:41:59.619Z,18.09
2023-02-28T10:45:18.510Z,18.23
2023-02-28T10:48:38.209Z,17.78
2023-02-28T10:51:46.746Z,18.22
2023-02-28T10:54:53.985Z,18.58
2023-02-28T10:57:59.961Z,19.08
2023-02-28T11:01:07.029Z,18.29
2023-02-28T11:04:37.073Z,19.59
2023-02-28T11:07:55.733Z,18.41
2023-02-28T11:11:09.108Z,18.56
2023-02-28T11:14:26.136Z,19.82
2023-02-28T11:17:35.662Z,19.95
2023-02-28T11:20:44.549Z,20.61
2023-02-28T11:24:02.817Z,19.49
2023-02-28T11:27:11.804Z,19.28
2023-02-28T11:30:40.327Z,19.53
2023-02-28T11:33:52.662Z,20.01
2023-02-28T11:37:04.895Z,20.55
2023-02-28T11:40:19.766Z,20.05
2023-02-28T11:43:55.856Z,20.59
2023-02-28T11:47:14.137Z,20.40
2023-02-28T11:50:42.246Z,20.85
2023-02-28T11:54:18.983Z,21.28
2023-02-28T11:57:52.751Z,21.17
2023-02-28T12:01:19.004Z,20.89
2023-02-28T12:04:46.085Z,20.98
2023-02-28T12:08:19.711Z,20.90
2023-02-28T12:11:53.661Z,20.46
2023-02-28T12:15:32.372Z,20.98
2023-02-28T12:19:10.411Z,20.54
2023-02-28T12:22:33.863Z,21.65
2023-02-28T12:25:59.904Z,22.11
2023-02-28T12:29:21.585Z,22.06
2023-02-28T12:32:45.769Z,22.06
2023-02-28T12:35:59.864Z,22.05
2023-02-28T12:39:14.150Z,24.91
2023-02-28T12:42:32.456Z,24.17
2023-02-28T12:45:50.270Z,22.43
2023-02-28T12:49:14.468Z,22.35
2023-02-28T12:52:32.669Z,21.70
2023-02-28T12:55:54.404Z,21.74
2023-02-28T12:59:08.231Z,22.63
2023-02-28T13:02:59.462Z,23.01
2023-02-28T13:06:53.523Z,23.14
2023-02-28T13:10:08.804Z,23.48
2023-02-28T13:13:30.804Z,24.44
2023-02-28T13:17:01.293Z,22.76
2023-02-28T13:20:08.309Z,24.81
2023-02-28T13:24:03.260Z,25.66
2023-02-28T13:27:43.909Z,23.37
2023-02-28T13:31:12.559Z,25.15
2023-02-28T13:34:20.855Z,26.43
2023-02-28T13:37:48.907Z,29.05
2023-02-28T13:40:55.005Z,24.52
2023-02-28T13:44:11.780Z,24.60
2023-02-28T13:47:33.744Z,22.38
2023-02-28T13:50:42.964Z,23.43
2023-02-28T13:54:13.771Z,24.04
2023-02-28T13:57:46.101Z,23.08
2023-02-28T14:01:44.398Z,22.76
2023-02-28T14:05:06.191Z,22.52
2023-02-28T14:08:22.800Z,25.26
2023-02-28T14:11:36.061Z,24.61
2023-02-28T14:15:00.915Z,24.39
2023-02-28T14:18:27.269Z,23.47
2023-02-28T14:21:38.418Z,23.02
2023-02-28T14:25:14.818Z,23.29
2023-02-28T14:28:45.860Z,23.53
2023-02-28T14:32:12.845Z,23.48
2023-02-28T14:36:06.107Z,23.02
2023-02-28T14:39:26.737Z,23.45
2023-02-28T14:42:39.260Z,23.68
2023-02-28T14:45:46.135Z,22.37
2023-02-28T14:48:54.424Z,21.84
2023-02-28T14:52:19.147Z,22.03
2023-02-28T14:55:32.134Z,22.50
2023-02-28T14:58:39.012Z,21.85
2023-02-28T15:01:45.008Z,22.06
2023-02-28T15:05:00.981Z,21.84
2023-02-28T15:08:18.941Z,22.31
2023-02-28T15:11:26.134Z,22.65
2023-02-28T15:14:32.342Z,25.24
2023-02-28T15:17:40.463Z,28.63
2023-02-28T15:20:49.506Z,31.02
2023-02-28T15:24:04.834Z,27.42
2023-02-28T15:27:19.022Z,28.59
2023-02-28T15:30:33.854Z,26.29
2023-02-28T15:33:40.560Z,32.03
2023-02-28T15:36:47.299Z,36.08
2023-02-28T15:39:58.601Z,34.30
2023-02-28T15:43:11.505Z,35.21
2023-02-28T15:46:19.204Z,36.94
2023-02-28T15:49:27.786Z,39.92
2023-02-28T15:52:44.926Z,35.17
2023-02-28T15:56:04.985Z,31.83
2023-02-28T15:59:20.455Z,29.47
2023-02-28T16:02:36.650Z,32.48
2023-02-28T16:05:42.724Z,32.81
2023-02-28T16:08:52.374Z,28.55
2023-02-28T16:12:06.618Z,26.90
2023-02-28T16:15:27.252Z,26.31
2023-02-28T16:18:35.728Z,27.78
2023-02-28T16:21:44.672Z,44.57
2023-02-28T16:24:50.731Z,32.43
2023-02-28T16:28:10.853Z,39.35
2023-02-28T16:31:20.271Z,40.06
2023-02-28T16:34:31.350Z,32.51
2023-02-28T16:37:39.616Z,32.54
2023-02-28T16:40:46.992Z,35.08
2023-02-28T16:44:01.378Z,33.49
2023-02-28T16:47:15.727Z,35.81
2023-02-28T16:50:29.652Z,39.56
2023-02-28T16:53:36.696Z,46.51
2023-02-28T16:56:51.193Z,52.18
2023-02-28T17:00:01.889Z,54.74
2023-02-28T17:03:11.693Z,69.51
2023-02-28T17:06:26.032Z,78.35
2023-02-28T17:09:42.389Z,90.44
2023-02-28T17:12:49.341Z,83.26
2023-02-28T17:15:58.575Z,93.51
2023-02-28T17:19:10.176Z,168.99
2023-02-28T17:22:16.119Z,140.67
2023-02-28T17:25:24.490Z,112.94
2023-02-28T17:28:34.613Z,117.05
2023-02-28T17:31:47.790Z,100.70
2023-02-28T17:34:54.575Z,122.16
2023-02-28T17:38:01.468Z,96.28
2023-02-28T17:41:15.641Z,101.74
2023-02-28T17:44:22.700Z,97.80
2023-02-28T17:47:31.386Z,82.80
2023-02-28T17:50:38.111Z,104.44
2023-02-28T17:53:44.612Z,77.81
2023-02-28T17:56:51.669Z,61.00
2023-02-28T18:00:02.752Z,53.53
2023-02-28T18:03:35.572Z,54.77
2023-02-28T18:06:51.238Z,56.71
2023-02-28T18:09:58.057Z,55.78
2023-02-28T18:13:04.906Z,61.07
2023-02-28T18:16:12.873Z,60.62
2023-02-28T18:19:21.959Z,52.52
2023-02-28T18:22:28.878Z,52.49
2023-02-28T18:25:34.774Z,57.36
2023-02-28T18:28:42.734Z,65.83
2023-02-28T18:31:49.215Z,68.13
2023-02-28T18:34:58.799Z,69.13
2023-02-28T18:38:09.075Z,68.44
2023-02-28T18:41:16.413Z,67.12
2023-02-28T18:44:22.561Z,67.76
2023-02-28T18:47:29.473Z,53.66
2023-02-28T18:50:42.005Z,46.10
2023-02-28T18:53:50.207Z,48.05
2023-02-28T18:56:56.472Z,50.01
2023-02-28T19:00:03.391Z,53.40
2023-02-28T19:03:09.334Z,59.01
2023-02-28T19:06:19.279Z,65.95
2023-02-28T19:09:25.222Z,48.92
2023-02-28T19:12:31.936Z,54.98
2023-02-28T19:15:37.870Z,54.24
2023-02-28T19:18:45.380Z,64.64
2023-02-28T19:21:55.503Z,79.75
2023-02-28T19:25:03.070Z,77.75
2023-02-28T19:28:09.134Z,65.49
2023-02-28T19:31:19.885Z,63.57
2023-02-28T19:34:26.979Z,88.88
2023-02-28T19:37:40.654Z,67.04
2023-02-28T19:40:46.890Z,71.74
2023-02-28T19:43:55.720Z,83.72
2023-02-28T19:47:01.779Z,89.93
2023-02-28T19:50:10.187Z,84.00
2023-02-28T19:53:18.771Z,79.45
2023-02-28T19:56:26.307Z,74.14
2023-02-28T19:59:39.221Z,101.64
2023-02-28T20:02:46.927Z,101.04
2023-02-28T20:06:05.191Z,84.92
2023-02-28T20:09:15.644Z,91.25
2023-02-28T20:12:24.682Z,104.91
2023-02-28T20:15:32.566Z,76.11
2023-02-28T20:18:39.116Z,60.71
2023-02-28T20:21:45.999Z,56.39
2023-02-28T20:24:54.603Z,58.51
2023-02-28T20:28:01.506Z,66.25
2023-02-28T20:31:15.444Z,66.67
2023-02-28T20:34:27.340Z,79.10
2023-02-28T20:37:33.386Z,82.04
2023-02-28T20:40:42.979Z,77.47
2023-02-28T20:43:49.540Z,76.59
2023-02-28T20:46:56.430Z,78.21
2023-02-28T20:50:02.355Z,75.58
2023-02-28T20:53:09.115Z,76.27
2023-02-28T20:56:21.407Z,80.10
2023-02-28T20:59:28.232Z,81.61
2023-02-28T21:02:34.439Z,81.20
2023-02-28T21:05:41.171Z,87.01
2023-02-28T21:08:48.212Z,97.28
2023-02-28T21:11:59.249Z,99.02
2023-02-28T21:15:05.375Z,91.50
2023-02-28T21:18:12.235Z,86.19
2023-02-28T21:21:22.258Z,89.62
2023-02-28T21:24:29.033Z,93.20
2023-02-28T21:27:38.029Z,95.88
2023-02-28T21:30:44.831Z,123.10
2023-02-28T21:33:51.449Z,154.98
2023-02-28T21:36:58.269Z,163.76
2023-02-28T21:40:04.301Z,204.05
2023-02-28T21:43:13.777Z,180.36
2023-02-28T21:46:23.651Z,173.82
2023-02-28T21:49:31.049Z,206.16
2023-02-28T21:52:37.094Z,243.10
2023-02-28T21:55:44.113Z,217.07
2023-02-28T21:59:00.820Z,189.63
2023-02-28T22:02:10.903Z,169.70
2023-02-28T22:05:16.874Z,277.28
2023-02-28T22:08:23.967Z,203.84
2023-02-28T22:11:30.199Z,181.53
2023-02-28T22:14:41.924Z,172.22
2023-02-28T22:17:48.253Z,171.52
2023-02-28T22:20:58.205Z,172.92
2023-02-28T22:24:04.223Z,179.12
2023-02-28T22:27:11.096Z,177.73
2023-02-28T22:30:21.111Z,175.65
2023-02-28T22:33:29.791Z,173.44
2023-02-28T22:36:36.502Z,181.95
2023-02-28T22:39:44.056Z,180.81
2023-02-28T22:42:50.929Z,174.96
2023-02-28T22:46:03.862Z,174.34
2023-02-28T22:49:10.138Z,174.64
2023-02-28T22:52:16.955Z,180.44
2023-02-28T22:55:22.968Z,178.26
2023-02-28T22:58:30.945Z,172.69
2023-02-28T23:01:40.853Z,172.48
2023-02-28T23:04:47.771Z,171.16
2023-02-28T23:07:53.801Z,169.27
2023-02-28T23:11:01.030Z,177.86
2023-02-28T23:14:08.785Z,179.44
2023-02-28T23:17:18.177Z,164.38
2023-02-28T23:20:24.947Z,163.73
2023-02-28T23:23:32.073Z,169.50
2023-02-28T23:26:38.195Z,176.06
2023-02-28T23:29:45.235Z,184.04
2023-02-28T23:32:54.107Z,178.07
2023-02-28T23:36:04.314Z,178.92
2023-02-28T23:39:10.303Z,179.99
2023-02-28T23:42:17.110Z,177.56
2023-02-28T23:45:23.307Z,178.42
2023-02-28T23:48:32.973Z,178.68
2023-02-28T23:51:39.592Z,179.25
2023-02-28T23:54:47.068Z,181.50
2023-02-28T23:57:53.026Z,182.21
